sensor_id;sensor_type;location;lat;lon;timestamp;P1;durP1;ratioP1;P2;durP2;ratioP2
58518;SDS011;44310;48.106;12.008;2023-02-15T00:00:05;6.40;;;2.00;;
58518;SDS011;44310;48.106;12.008;2023-02-15T00:02:37;5.53;;;1.83;;
58518;SDS011;44310;48.106;12.008;2023-02-15T00:05:04;6.20;;;2.10;;
58518;SDS011;44310;48.106;12.008;2023-02-15T00:07:32;4.95;;;1.98;;
58518;SDS011;44310;48.106;12.008;2023-02-15T00:09:59;3.15;;;1.70;;
58518;SDS011;44310;48.106;12.008;2023-02-15T00:12:26;4.45;;;1.63;;
58518;SDS011;44310;48.106;12.008;2023-02-15T00:14:53;4.97;;;1.63;;
58518;SDS011;44310;48.106;12.008;2023-02-15T00:17:20;5.53;;;1.70;;
58518;SDS011;44310;48.106;12.008;2023-02-15T00:19:48;3.67;;;1.60;;
58518;SDS011;44310;48.106;12.008;2023-02-15T00:22:15;4.25;;;1.70;;
58518;SDS011;44310;48.106;12.008;2023-02-15T00:24:42;4.55;;;1.45;;
58518;SDS011;44310;48.106;12.008;2023-02-15T00:27:09;2.92;;;1.52;;
58518;SDS011;44310;48.106;12.008;2023-02-15T00:29:36;2.92;;;1.30;;
58518;SDS011;44310;48.106;12.008;2023-02-15T00:32:04;3.88;;;1.50;;
58518;SDS011;44310;48.106;12.008;2023-02-15T00:34:31;3.10;;;1.58;;
58518;SDS011;44310;48.106;12.008;2023-02-15T00:36:58;4.07;;;1.52;;
58518;SDS011;44310;48.106;12.008;2023-02-15T00:39:25;4.20;;;1.70;;
58518;SDS011;44310;48.106;12.008;2023-02-15T00:41:53;4.55;;;1.60;;
58518;SDS011;44310;48.106;12.008;2023-02-15T00:44:20;4.25;;;1.33;;
58518;SDS011;44310;48.106;12.008;2023-02-15T00:46:47;3.25;;;1.50;;
58518;SDS011;44310;48.106;12.008;2023-02-15T00:49:14;3.53;;;1.80;;
58518;SDS011;44310;48.106;12.008;2023-02-15T00:51:42;3.33;;;1.30;;
58518;SDS011;44310;48.106;12.008;2023-02-15T00:54:09;2.83;;;1.50;;
58518;SDS011;44310;48.106;12.008;2023-02-15T00:56:36;3.22;;;1.40;;
58518;SDS011;44310;48.106;12.008;2023-02-15T00:59:03;1.30;;;1.15;;
58518;SDS011;44310;48.106;12.008;2023-02-15T01:01:30;2.13;;;1.17;;
58518;SDS011;44310;48.106;12.008;2023-02-15T01:03:57;1.40;;;1.10;;
58518;SDS011;44310;48.106;12.008;2023-02-15T01:06:24;6.63;;;2.20;;
58518;SDS011;44310;48.106;12.008;2023-02-15T01:08:51;3.97;;;1.50;;
58518;SDS011;44310;48.106;12.008;2023-02-15T01:11:20;2.83;;;1.40;;
58518;SDS011;44310;48.106;12.008;2023-02-15T01:13:49;6.60;;;2.00;;
58518;SDS011;44310;48.106;12.008;2023-02-15T01:16:17;4.50;;;1.52;;
58518;SDS011;44310;48.106;12.008;2023-02-15T01:18:45;1.90;;;1.15;;
58518;SDS011;44310;48.106;12.008;2023-02-15T01:21:14;2.95;;;1.45;;
58518;SDS011;44310;48.106;12.008;2023-02-15T01:23:47;2.65;;;1.50;;
58518;SDS011;44310;48.106;12.008;2023-02-15T01:26:14;4.57;;;1.70;;
58518;SDS011;44310;48.106;12.008;2023-02-15T01:28:41;4.73;;;1.77;;
58518;SDS011;44310;48.106;12.008;2023-02-15T01:31:10;4.60;;;1.60;;
58518;SDS011;44310;48.106;12.008;2023-02-15T01:33:39;2.37;;;1.30;;
58518;SDS011;44310;48.106;12.008;2023-02-15T01:36:06;3.75;;;1.35;;
58518;SDS011;44310;48.106;12.008;2023-02-15T01:38:34;2.90;;;1.30;;
58518;SDS011;44310;48.106;12.008;2023-02-15T01:41:01;2.72;;;1.25;;
58518;SDS011;44310;48.106;12.008;2023-02-15T01:43:59;1.27;;;1.10;;
58518;SDS011;44310;48.106;12.008;2023-02-15T01:46:38;1.70;;;1.25;;
58518;SDS011;44310;48.106;12.008;2023-02-15T01:49:11;1.55;;;1.10;;
58518;SDS011;44310;48.106;12.008;2023-02-15T01:51:43;1.53;;;1.20;;
58518;SDS011;44310;48.106;12.008;2023-02-15T01:54:17;2.53;;;1.23;;
58518;SDS011;44310;48.106;12.008;2023-02-15T01:56:58;1.40;;;0.98;;
58518;SDS011;44310;48.106;12.008;2023-02-15T01:59:30;7.18;;;1.98;;
58518;SDS011;44310;48.106;12.008;2023-02-15T02:01:59;3.05;;;1.33;;
58518;SDS011;44310;48.106;12.008;2023-02-15T02:04:29;4.00;;;1.48;;
58518;SDS011;44310;48.106;12.008;2023-02-15T02:07:01;3.80;;;1.42;;
58518;SDS011;44310;48.106;12.008;2023-02-15T02:09:30;2.90;;;1.30;;
58518;SDS011;44310;48.106;12.008;2023-02-15T02:11:58;2.05;;;1.30;;
58518;SDS011;44310;48.106;12.008;2023-02-15T02:14:26;2.55;;;1.30;;
58518;SDS011;44310;48.106;12.008;2023-02-15T02:16:56;2.85;;;1.30;;
58518;SDS011;44310;48.106;12.008;2023-02-15T02:22:34;4.07;;;1.40;;
58518;SDS011;44310;48.106;12.008;2023-02-15T02:28:19;2.25;;;1.40;;
58518;SDS011;44310;48.106;12.008;2023-02-15T02:31:14;3.30;;;1.50;;
58518;SDS011;44310;48.106;12.008;2023-02-15T02:36:28;5.38;;;1.63;;
58518;SDS011;44310;48.106;12.008;2023-02-15T02:44:29;3.47;;;1.50;;
58518;SDS011;44310;48.106;12.008;2023-02-15T02:47:17;4.13;;;1.50;;
58518;SDS011;44310;48.106;12.008;2023-02-15T02:50:00;3.10;;;1.42;;
58518;SDS011;44310;48.106;12.008;2023-02-15T02:52:34;2.83;;;1.30;;
58518;SDS011;44310;48.106;12.008;2023-02-15T02:58:05;3.80;;;1.30;;
58518;SDS011;44310;48.106;12.008;2023-02-15T03:00:53;5.80;;;1.77;;
58518;SDS011;44310;48.106;12.008;2023-02-15T03:03:40;3.25;;;1.40;;
58518;SDS011;44310;48.106;12.008;2023-02-15T03:06:12;6.85;;;1.92;;
58518;SDS011;44310;48.106;12.008;2023-02-15T03:08:48;5.15;;;1.92;;
58518;SDS011;44310;48.106;12.008;2023-02-15T03:11:21;3.20;;;1.52;;
58518;SDS011;44310;48.106;12.008;2023-02-15T03:13:48;4.20;;;1.70;;
58518;SDS011;44310;48.106;12.008;2023-02-15T03:16:16;4.05;;;1.60;;
58518;SDS011;44310;48.106;12.008;2023-02-15T03:19:01;3.40;;;1.48;;
58518;SDS011;44310;48.106;12.008;2023-02-15T03:21:45;5.13;;;1.60;;
58518;SDS011;44310;48.106;12.008;2023-02-15T03:24:25;3.13;;;1.45;;
58518;SDS011;44310;48.106;12.008;2023-02-15T03:26:56;6.05;;;1.80;;
58518;SDS011;44310;48.106;12.008;2023-02-15T03:29:26;7.30;;;2.78;;
58518;SDS011;44310;48.106;12.008;2023-02-15T03:31:56;2.83;;;1.55;;
58518;SDS011;44310;48.106;12.008;2023-02-15T03:34:28;2.83;;;1.50;;
58518;SDS011;44310;48.106;12.008;2023-02-15T03:37:04;3.72;;;1.50;;
58518;SDS011;44310;48.106;12.008;2023-02-15T03:39:44;5.33;;;1.57;;
58518;SDS011;44310;48.106;12.008;2023-02-15T03:42:19;8.77;;;2.50;;
58518;SDS011;44310;48.106;12.008;2023-02-15T03:47:27;3.93;;;1.53;;
58518;SDS011;44310;48.106;12.008;2023-02-15T03:49:59;4.15;;;1.58;;
58518;SDS011;44310;48.106;12.008;2023-02-15T03:52:54;5.80;;;1.80;;
58518;SDS011;44310;48.106;12.008;2023-02-15T03:55:23;4.80;;;1.55;;
58518;SDS011;44310;48.106;12.008;2023-02-15T03:57:51;2.47;;;1.50;;
58518;SDS011;44310;48.106;12.008;2023-02-15T04:00:38;3.20;;;1.50;;
58518;SDS011;44310;48.106;12.008;2023-02-15T04:03:45;6.85;;;1.80;;
58518;SDS011;44310;48.106;12.008;2023-02-15T04:06:19;4.47;;;1.67;;
58518;SDS011;44310;48.106;12.008;2023-02-15T04:08:46;5.83;;;1.70;;
58518;SDS011;44310;48.106;12.008;2023-02-15T04:11:32;4.68;;;1.52;;
58518;SDS011;44310;48.106;12.008;2023-02-15T04:13:59;4.50;;;1.52;;
58518;SDS011;44310;48.106;12.008;2023-02-15T04:16:46;3.80;;;1.40;;
58518;SDS011;44310;48.106;12.008;2023-02-15T04:19:13;4.22;;;1.50;;
58518;SDS011;44310;48.106;12.008;2023-02-15T04:21:59;2.85;;;1.50;;
58518;SDS011;44310;48.106;12.008;2023-02-15T04:24:44;4.32;;;1.40;;
58518;SDS011;44310;48.106;12.008;2023-02-15T04:27:30;3.10;;;1.40;;
58518;SDS011;44310;48.106;12.008;2023-02-15T04:29:57;5.97;;;1.67;;
58518;SDS011;44310;48.106;12.008;2023-02-15T04:32:24;1.85;;;1.30;;
58518;SDS011;44310;48.106;12.008;2023-02-15T04:34:51;3.20;;;1.30;;
58518;SDS011;44310;48.106;12.008;2023-02-15T04:37:18;2.92;;;1.20;;
58518;SDS011;44310;48.106;12.008;2023-02-15T04:39:46;1.92;;;1.40;;
58518;SDS011;44310;48.106;12.008;2023-02-15T04:42:13;1.83;;;1.00;;
58518;SDS011;44310;48.106;12.008;2023-02-15T04:44:40;2.70;;;1.20;;
58518;SDS011;44310;48.106;12.008;2023-02-15T04:47:08;2.88;;;1.10;;
58518;SDS011;44310;48.106;12.008;2023-02-15T04:49:35;9.32;;;2.50;;
58518;SDS011;44310;48.106;12.008;2023-02-15T04:52:02;6.43;;;1.90;;
58518;SDS011;44310;48.106;12.008;2023-02-15T04:54:29;3.90;;;1.60;;
58518;SDS011;44310;48.106;12.008;2023-02-15T04:56:56;4.00;;;1.42;;
58518;SDS011;44310;48.106;12.008;2023-02-15T04:59:23;4.55;;;1.40;;
58518;SDS011;44310;48.106;12.008;2023-02-15T05:01:50;3.33;;;1.33;;
58518;SDS011;44310;48.106;12.008;2023-02-15T05:04:17;4.03;;;1.50;;
58518;SDS011;44310;48.106;12.008;2023-02-15T05:06:45;2.22;;;1.25;;
58518;SDS011;44310;48.106;12.008;2023-02-15T05:09:12;4.18;;;1.20;;
58518;SDS011;44310;48.106;12.008;2023-02-15T05:11:40;4.63;;;1.40;;
58518;SDS011;44310;48.106;12.008;2023-02-15T05:14:07;3.75;;;1.30;;
58518;SDS011;44310;48.106;12.008;2023-02-15T05:16:34;3.85;;;1.23;;
58518;SDS011;44310;48.106;12.008;2023-02-15T05:19:01;2.38;;;1.10;;
58518;SDS011;44310;48.106;12.008;2023-02-15T05:21:28;2.90;;;1.00;;
58518;SDS011;44310;48.106;12.008;2023-02-15T05:23:56;2.13;;;1.05;;
58518;SDS011;44310;48.106;12.008;2023-02-15T05:26:23;2.28;;;0.90;;
58518;SDS011;44310;48.106;12.008;2023-02-15T05:29:10;2.58;;;1.20;;
58518;SDS011;44310;48.106;12.008;2023-02-15T05:31:37;3.38;;;1.20;;
58518;SDS011;44310;48.106;12.008;2023-02-15T05:34:05;3.03;;;1.13;;
58518;SDS011;44310;48.106;12.008;2023-02-15T05:36:32;3.90;;;1.27;;
58518;SDS011;44310;48.106;12.008;2023-02-15T05:38:59;2.10;;;1.17;;
58518;SDS011;44310;48.106;12.008;2023-02-15T05:41:26;2.25;;;1.02;;
58518;SDS011;44310;48.106;12.008;2023-02-15T05:43:54;2.40;;;1.27;;
58518;SDS011;44310;48.106;12.008;2023-02-15T05:46:23;4.97;;;1.40;;
58518;SDS011;44310;48.106;12.008;2023-02-15T05:48:50;5.72;;;1.80;;
58518;SDS011;44310;48.106;12.008;2023-02-15T05:51:17;4.80;;;1.70;;
58518;SDS011;44310;48.106;12.008;2023-02-15T05:53:44;9.88;;;2.40;;
58518;SDS011;44310;48.106;12.008;2023-02-15T05:56:11;5.10;;;1.63;;
58518;SDS011;44310;48.106;12.008;2023-02-15T05:58:39;6.07;;;1.65;;
58518;SDS011;44310;48.106;12.008;2023-02-15T06:01:11;3.70;;;1.52;;
58518;SDS011;44310;48.106;12.008;2023-02-15T06:03:38;4.20;;;1.38;;
58518;SDS011;44310;48.106;12.008;2023-02-15T06:06:07;8.55;;;2.38;;
58518;SDS011;44310;48.106;12.008;2023-02-15T06:08:35;6.03;;;1.65;;
58518;SDS011;44310;48.106;12.008;2023-02-15T06:11:03;5.07;;;1.55;;
58518;SDS011;44310;48.106;12.008;2023-02-15T06:13:31;3.25;;;1.48;;
58518;SDS011;44310;48.106;12.008;2023-02-15T06:16:01;2.97;;;1.40;;
58518;SDS011;44310;48.106;12.008;2023-02-15T06:18:28;4.43;;;1.30;;
58518;SDS011;44310;48.106;12.008;2023-02-15T06:20:55;3.15;;;1.50;;
58518;SDS011;44310;48.106;12.008;2023-02-15T06:23:22;4.10;;;1.60;;
58518;SDS011;44310;48.106;12.008;2023-02-15T06:25:49;4.07;;;1.40;;
58518;SDS011;44310;48.106;12.008;2023-02-15T06:28:16;2.45;;;1.40;;
58518;SDS011;44310;48.106;12.008;2023-02-15T06:30:44;3.13;;;1.25;;
58518;SDS011;44310;48.106;12.008;2023-02-15T06:33:11;3.07;;;1.40;;
58518;SDS011;44310;48.106;12.008;2023-02-15T06:35:38;4.10;;;1.40;;
58518;SDS011;44310;48.106;12.008;2023-02-15T06:38:05;3.17;;;1.30;;
58518;SDS011;44310;48.106;12.008;2023-02-15T06:40:32;4.20;;;1.35;;
58518;SDS011;44310;48.106;12.008;2023-02-15T06:42:59;3.25;;;1.33;;
58518;SDS011;44310;48.106;12.008;2023-02-15T06:45:27;6.47;;;2.25;;
58518;SDS011;44310;48.106;12.008;2023-02-15T06:47:54;6.00;;;1.70;;
58518;SDS011;44310;48.106;12.008;2023-02-15T06:50:21;6.60;;;1.92;;
58518;SDS011;44310;48.106;12.008;2023-02-15T06:52:48;5.57;;;1.70;;
58518;SDS011;44310;48.106;12.008;2023-02-15T06:55:15;6.50;;;2.10;;
58518;SDS011;44310;48.106;12.008;2023-02-15T06:57:42;7.40;;;2.03;;
58518;SDS011;44310;48.106;12.008;2023-02-15T07:00:09;4.75;;;1.40;;
58518;SDS011;44310;48.106;12.008;2023-02-15T07:02:37;5.22;;;1.45;;
58518;SDS011;44310;48.106;12.008;2023-02-15T07:05:04;6.90;;;1.90;;
58518;SDS011;44310;48.106;12.008;2023-02-15T07:07:31;3.17;;;1.30;;
58518;SDS011;44310;48.106;12.008;2023-02-15T07:09:59;6.50;;;1.70;;
58518;SDS011;44310;48.106;12.008;2023-02-15T07:12:26;10.10;;;2.88;;
58518;SDS011;44310;48.106;12.008;2023-02-15T07:15:09;23.70;;;5.28;;
58518;SDS011;44310;48.106;12.008;2023-02-15T07:17:38;15.73;;;3.63;;
58518;SDS011;44310;48.106;12.008;2023-02-15T07:20:06;11.10;;;2.93;;
58518;SDS011;44310;48.106;12.008;2023-02-15T07:22:38;16.08;;;3.42;;
58518;SDS011;44310;48.106;12.008;2023-02-15T07:25:06;14.23;;;3.47;;
58518;SDS011;44310;48.106;12.008;2023-02-15T07:27:34;17.67;;;3.55;;
58518;SDS011;44310;48.106;12.008;2023-02-15T07:30:02;14.43;;;3.47;;
58518;SDS011;44310;48.106;12.008;2023-02-15T07:32:31;12.90;;;3.05;;
58518;SDS011;44310;48.106;12.008;2023-02-15T07:34:59;13.55;;;3.20;;
58518;SDS011;44310;48.106;12.008;2023-02-15T07:37:27;6.60;;;2.50;;
58518;SDS011;44310;48.106;12.008;2023-02-15T07:39:54;5.60;;;2.33;;
58518;SDS011;44310;48.106;12.008;2023-02-15T07:42:21;6.83;;;2.43;;
58518;SDS011;44310;48.106;12.008;2023-02-15T07:44:48;9.68;;;2.65;;
58518;SDS011;44310;48.106;12.008;2023-02-15T07:47:16;4.53;;;1.90;;
58518;SDS011;44310;48.106;12.008;2023-02-15T07:49:44;4.60;;;1.83;;
58518;SDS011;44310;48.106;12.008;2023-02-15T07:52:11;8.50;;;2.38;;
58518;SDS011;44310;48.106;12.008;2023-02-15T07:54:38;7.15;;;2.00;;
58518;SDS011;44310;48.106;12.008;2023-02-15T07:57:05;9.00;;;2.40;;
58518;SDS011;44310;48.106;12.008;2023-02-15T07:59:32;8.02;;;2.22;;
58518;SDS011;44310;48.106;12.008;2023-02-15T08:01:59;7.28;;;1.73;;
58518;SDS011;44310;48.106;12.008;2023-02-15T08:04:26;6.30;;;2.13;;
58518;SDS011;44310;48.106;12.008;2023-02-15T08:06:54;10.13;;;2.50;;
58518;SDS011;44310;48.106;12.008;2023-02-15T08:09:21;14.23;;;2.83;;
58518;SDS011;44310;48.106;12.008;2023-02-15T08:11:49;4.00;;;1.95;;
58518;SDS011;44310;48.106;12.008;2023-02-15T08:14:17;6.57;;;1.92;;
58518;SDS011;44310;48.106;12.008;2023-02-15T08:16:47;5.32;;;1.80;;
58518;SDS011;44310;48.106;12.008;2023-02-15T08:19:22;4.20;;;1.77;;
58518;SDS011;44310;48.106;12.008;2023-02-15T08:21:52;6.32;;;1.73;;
58518;SDS011;44310;48.106;12.008;2023-02-15T08:24:21;5.88;;;1.90;;
58518;SDS011;44310;48.106;12.008;2023-02-15T08:26:49;3.42;;;1.60;;
58518;SDS011;44310;48.106;12.008;2023-02-15T08:29:19;5.03;;;1.50;;
58518;SDS011;44310;48.106;12.008;2023-02-15T08:31:49;6.65;;;1.58;;
58518;SDS011;44310;48.106;12.008;2023-02-15T08:34:19;5.38;;;1.60;;
58518;SDS011;44310;48.106;12.008;2023-02-15T08:36:46;3.53;;;1.40;;
58518;SDS011;44310;48.106;12.008;2023-02-15T08:39:14;4.45;;;1.40;;
58518;SDS011;44310;48.106;12.008;2023-02-15T08:41:43;4.68;;;1.50;;
58518;SDS011;44310;48.106;12.008;2023-02-15T08:44:12;5.72;;;1.52;;
58518;SDS011;44310;48.106;12.008;2023-02-15T08:46:43;5.77;;;2.13;;
58518;SDS011;44310;48.106;12.008;2023-02-15T08:49:18;6.72;;;1.60;;
58518;SDS011;44310;48.106;12.008;2023-02-15T08:51:46;5.00;;;1.50;;
58518;SDS011;44310;48.106;12.008;2023-02-15T08:54:16;3.47;;;1.27;;
58518;SDS011;44310;48.106;12.008;2023-02-15T08:56:45;7.00;;;1.80;;
58518;SDS011;44310;48.106;12.008;2023-02-15T08:59:14;3.90;;;1.70;;
58518;SDS011;44310;48.106;12.008;2023-02-15T09:01:47;6.47;;;1.50;;
58518;SDS011;44310;48.106;12.008;2023-02-15T09:04:15;4.90;;;1.90;;
58518;SDS011;44310;48.106;12.008;2023-02-15T09:06:44;4.95;;;1.30;;
58518;SDS011;44310;48.106;12.008;2023-02-15T09:09:15;3.50;;;1.60;;
58518;SDS011;44310;48.106;12.008;2023-02-15T09:11:44;3.90;;;1.48;;
58518;SDS011;44310;48.106;12.008;2023-02-15T09:14:19;6.82;;;1.67;;
58518;SDS011;44310;48.106;12.008;2023-02-15T09:16:48;7.33;;;2.00;;
58518;SDS011;44310;48.106;12.008;2023-02-15T09:19:18;6.25;;;1.52;;
58518;SDS011;44310;48.106;12.008;2023-02-15T09:21:46;7.25;;;1.92;;
58518;SDS011;44310;48.106;12.008;2023-02-15T09:24:14;13.15;;;3.50;;
58518;SDS011;44310;48.106;12.008;2023-02-15T09:26:44;13.05;;;2.97;;
58518;SDS011;44310;48.106;12.008;2023-02-15T09:29:12;8.00;;;2.35;;
58518;SDS011;44310;48.106;12.008;2023-02-15T09:31:43;11.80;;;2.30;;
58518;SDS011;44310;48.106;12.008;2023-02-15T09:34:12;8.82;;;2.30;;
58518;SDS011;44310;48.106;12.008;2023-02-15T09:36:42;10.23;;;2.50;;
58518;SDS011;44310;48.106;12.008;2023-02-15T09:52:55;20.23;;;4.80;;
58518;SDS011;44310;48.106;12.008;2023-02-15T10:09:14;59.37;;;11.37;;
58518;SDS011;44310;48.106;12.008;2023-02-15T10:11:54;34.15;;;7.10;;
58518;SDS011;44310;48.106;12.008;2023-02-15T10:14:50;16.05;;;4.85;;
58518;SDS011;44310;48.106;12.008;2023-02-15T10:20:51;60.35;;;12.15;;
58518;SDS011;44310;48.106;12.008;2023-02-15T10:23:42;42.17;;;9.63;;
58518;SDS011;44310;48.106;12.008;2023-02-15T10:26:21;30.20;;;6.30;;
58518;SDS011;44310;48.106;12.008;2023-02-15T10:28:55;16.70;;;3.88;;
58518;SDS011;44310;48.106;12.008;2023-02-15T10:31:27;18.83;;;4.60;;
58518;SDS011;44310;48.106;12.008;2023-02-15T10:34:15;18.60;;;4.95;;
58518;SDS011;44310;48.106;12.008;2023-02-15T10:37:29;15.30;;;3.90;;
58518;SDS011;44310;48.106;12.008;2023-02-15T10:45:57;5.53;;;2.10;;
58518;SDS011;44310;48.106;12.008;2023-02-15T10:48:42;6.53;;;2.22;;
58518;SDS011;44310;48.106;12.008;2023-02-15T10:54:26;7.55;;;2.67;;
58518;SDS011;44310;48.106;12.008;2023-02-15T10:57:32;15.15;;;3.50;;
58518;SDS011;44310;48.106;12.008;2023-02-15T11:00:19;4.82;;;1.90;;
58518;SDS011;44310;48.106;12.008;2023-02-15T11:05:47;5.63;;;2.20;;
58518;SDS011;44310;48.106;12.008;2023-02-15T11:08:24;6.88;;;2.38;;
58518;SDS011;44310;48.106;12.008;2023-02-15T11:10:54;6.63;;;2.20;;
58518;SDS011;44310;48.106;12.008;2023-02-15T11:13:28;3.42;;;1.83;;
58518;SDS011;44310;48.106;12.008;2023-02-15T11:16:03;5.72;;;2.25;;
58518;SDS011;44310;48.106;12.008;2023-02-15T11:18:45;4.77;;;2.17;;
58518;SDS011;44310;48.106;12.008;2023-02-15T11:21:26;5.87;;;2.20;;
58518;SDS011;44310;48.106;12.008;2023-02-15T11:24:10;7.20;;;2.15;;
58518;SDS011;44310;48.106;12.008;2023-02-15T11:26:41;7.57;;;2.20;;
58518;SDS011;44310;48.106;12.008;2023-02-15T11:29:33;3.95;;;1.80;;
58518;SDS011;44310;48.106;12.008;2023-02-15T11:31:59;5.20;;;1.70;;
58518;SDS011;44310;48.106;12.008;2023-02-15T11:34:49;3.38;;;1.52;;
58518;SDS011;44310;48.106;12.008;2023-02-15T11:37:32;2.70;;;1.50;;
58518;SDS011;44310;48.106;12.008;2023-02-15T11:40:04;3.05;;;1.90;;
58518;SDS011;44310;48.106;12.008;2023-02-15T11:42:44;4.70;;;1.48;;
58518;SDS011;44310;48.106;12.008;2023-02-15T11:45:21;2.80;;;1.45;;
58518;SDS011;44310;48.106;12.008;2023-02-15T11:47:50;1.88;;;1.27;;
58518;SDS011;44310;48.106;12.008;2023-02-15T11:50:23;2.30;;;1.13;;
58518;SDS011;44310;48.106;12.008;2023-02-15T11:53:02;1.30;;;1.10;;
58518;SDS011;44310;48.106;12.008;2023-02-15T11:55:32;1.85;;;1.30;;
58518;SDS011;44310;48.106;12.008;2023-02-15T11:58:04;2.70;;;1.25;;
58518;SDS011;44310;48.106;12.008;2023-02-15T12:00:49;1.08;;;0.98;;
58518;SDS011;44310;48.106;12.008;2023-02-15T12:06:06;4.00;;;1.67;;
58518;SDS011;44310;48.106;12.008;2023-02-15T12:08:40;3.50;;;1.40;;
58518;SDS011;44310;48.106;12.008;2023-02-15T12:11:18;1.85;;;1.20;;
58518;SDS011;44310;48.106;12.008;2023-02-15T12:13:59;1.57;;;1.20;;
58518;SDS011;44310;48.106;12.008;2023-02-15T12:16:27;1.17;;;1.00;;
58518;SDS011;44310;48.106;12.008;2023-02-15T12:18:58;1.38;;;1.10;;
58518;SDS011;44310;48.106;12.008;2023-02-15T12:21:31;1.70;;;1.10;;
58518;SDS011;44310;48.106;12.008;2023-02-15T12:24:18;1.60;;;0.90;;
58518;SDS011;44310;48.106;12.008;2023-02-15T12:26:58;1.08;;;0.85;;
58518;SDS011;44310;48.106;12.008;2023-02-15T12:29:49;1.10;;;0.90;;
58518;SDS011;44310;48.106;12.008;2023-02-15T12:32:22;1.10;;;1.10;;
58518;SDS011;44310;48.106;12.008;2023-02-15T12:34:55;0.90;;;0.90;;
58518;SDS011;44310;48.106;12.008;2023-02-15T12:37:28;0.80;;;0.80;;
58518;SDS011;44310;48.106;12.008;2023-02-15T12:39:59;1.40;;;0.90;;
58518;SDS011;44310;48.106;12.008;2023-02-15T12:42:28;1.08;;;0.90;;
58518;SDS011;44310;48.106;12.008;2023-02-15T12:48:15;0.90;;;0.90;;
58518;SDS011;44310;48.106;12.008;2023-02-15T12:50:44;0.95;;;0.93;;
58518;SDS011;44310;48.106;12.008;2023-02-15T12:53:14;1.20;;;1.10;;
58518;SDS011;44310;48.106;12.008;2023-02-15T12:55:58;0.95;;;0.90;;
58518;SDS011;44310;48.106;12.008;2023-02-15T12:58:28;1.20;;;1.10;;
58518;SDS011;44310;48.106;12.008;2023-02-15T13:03:50;3.90;;;1.30;;
58518;SDS011;44310;48.106;12.008;2023-02-15T13:06:34;3.38;;;1.23;;
58518;SDS011;44310;48.106;12.008;2023-02-15T13:09:07;5.18;;;1.48;;
58518;SDS011;44310;48.106;12.008;2023-02-15T13:11:46;2.80;;;1.30;;
58518;SDS011;44310;48.106;12.008;2023-02-15T13:14:20;3.20;;;1.33;;
58518;SDS011;44310;48.106;12.008;2023-02-15T13:16:52;2.47;;;1.42;;
58518;SDS011;44310;48.106;12.008;2023-02-15T13:19:34;4.32;;;1.27;;
58518;SDS011;44310;48.106;12.008;2023-02-15T13:22:22;2.47;;;1.15;;
58518;SDS011;44310;48.106;12.008;2023-02-15T13:24:55;2.42;;;1.20;;
58518;SDS011;44310;48.106;12.008;2023-02-15T13:27:29;7.68;;;1.98;;
58518;SDS011;44310;48.106;12.008;2023-02-15T13:30:09;2.90;;;1.38;;
58518;SDS011;44310;48.106;12.008;2023-02-15T13:32:48;4.88;;;1.30;;
58518;SDS011;44310;48.106;12.008;2023-02-15T13:35:18;1.50;;;0.90;;
58518;SDS011;44310;48.106;12.008;2023-02-15T13:37:52;1.85;;;1.00;;
58518;SDS011;44310;48.106;12.008;2023-02-15T13:43:28;3.55;;;1.15;;
58518;SDS011;44310;48.106;12.008;2023-02-15T13:49:14;1.80;;;1.00;;
58518;SDS011;44310;48.106;12.008;2023-02-15T13:51:53;1.00;;;0.90;;
58518;SDS011;44310;48.106;12.008;2023-02-15T14:00:35;1.30;;;0.97;;
58518;SDS011;44310;48.106;12.008;2023-02-15T14:17:28;0.90;;;0.85;;
58518;SDS011;44310;48.106;12.008;2023-02-15T14:20:36;0.80;;;0.80;;
58518;SDS011;44310;48.106;12.008;2023-02-15T14:25:55;2.08;;;1.00;;
58518;SDS011;44310;48.106;12.008;2023-02-15T14:28:34;1.00;;;0.90;;
58518;SDS011;44310;48.106;12.008;2023-02-15T14:31:11;3.65;;;1.42;;
58518;SDS011;44310;48.106;12.008;2023-02-15T14:33:43;2.55;;;1.40;;
58518;SDS011;44310;48.106;12.008;2023-02-15T14:36:20;3.25;;;1.30;;
58518;SDS011;44310;48.106;12.008;2023-02-15T14:42:18;8.20;;;1.90;;
58518;SDS011;44310;48.106;12.008;2023-02-15T14:45:01;8.88;;;2.33;;
58518;SDS011;44310;48.106;12.008;2023-02-15T14:47:33;4.65;;;1.80;;
58518;SDS011;44310;48.106;12.008;2023-02-15T14:58:36;3.80;;;1.00;;
58518;SDS011;44310;48.106;12.008;2023-02-15T15:01:08;1.42;;;1.05;;
58518;SDS011;44310;48.106;12.008;2023-02-15T15:03:36;2.53;;;1.00;;
58518;SDS011;44310;48.106;12.008;2023-02-15T15:06:27;5.07;;;1.30;;
58518;SDS011;44310;48.106;12.008;2023-02-15T15:09:00;1.60;;;1.10;;
58518;SDS011;44310;48.106;12.008;2023-02-15T15:11:39;3.10;;;1.05;;
58518;SDS011;44310;48.106;12.008;2023-02-15T15:16:58;5.00;;;1.90;;
58518;SDS011;44310;48.106;12.008;2023-02-15T15:22:19;17.05;;;3.90;;
58518;SDS011;44310;48.106;12.008;2023-02-15T15:24:54;23.05;;;5.15;;
58518;SDS011;44310;48.106;12.008;2023-02-15T15:32:42;9.38;;;2.78;;
58518;SDS011;44310;48.106;12.008;2023-02-15T15:48:43;16.35;;;4.13;;
58518;SDS011;44310;48.106;12.008;2023-02-15T15:53:45;29.63;;;6.15;;
58518;SDS011;44310;48.106;12.008;2023-02-15T15:56:21;25.48;;;6.18;;
58518;SDS011;44310;48.106;12.008;2023-02-15T15:59:13;41.77;;;10.43;;
58518;SDS011;44310;48.106;12.008;2023-02-15T16:01:45;31.63;;;7.35;;
58518;SDS011;44310;48.106;12.008;2023-02-15T16:04:14;27.50;;;6.57;;
58518;SDS011;44310;48.106;12.008;2023-02-15T16:09:53;22.83;;;6.68;;
58518;SDS011;44310;48.106;12.008;2023-02-15T16:12:21;22.20;;;6.38;;
58518;SDS011;44310;48.106;12.008;2023-02-15T16:14:49;29.95;;;6.45;;
58518;SDS011;44310;48.106;12.008;2023-02-15T16:17:20;31.77;;;7.22;;
58518;SDS011;44310;48.106;12.008;2023-02-15T16:19:49;22.83;;;5.50;;
58518;SDS011;44310;48.106;12.008;2023-02-15T16:22:19;20.92;;;4.95;;
58518;SDS011;44310;48.106;12.008;2023-02-15T16:27:55;27.13;;;5.80;;
58518;SDS011;44310;48.106;12.008;2023-02-15T16:35:37;24.02;;;5.78;;
58518;SDS011;44310;48.106;12.008;2023-02-15T16:38:08;48.78;;;10.27;;
58518;SDS011;44310;48.106;12.008;2023-02-15T16:43:12;25.02;;;5.65;;
58518;SDS011;44310;48.106;12.008;2023-02-15T16:45:54;20.33;;;4.45;;
58518;SDS011;44310;48.106;12.008;2023-02-15T16:48:30;18.90;;;5.00;;
58518;SDS011;44310;48.106;12.008;2023-02-15T16:50:59;18.55;;;4.90;;
58518;SDS011;44310;48.106;12.008;2023-02-15T16:53:28;19.15;;;4.85;;
58518;SDS011;44310;48.106;12.008;2023-02-15T16:55:57;23.60;;;5.10;;
58518;SDS011;44310;48.106;12.008;2023-02-15T16:58:28;15.13;;;3.95;;
58518;SDS011;44310;48.106;12.008;2023-02-15T17:01:02;16.20;;;4.00;;
58518;SDS011;44310;48.106;12.008;2023-02-15T17:03:33;11.40;;;3.47;;
58518;SDS011;44310;48.106;12.008;2023-02-15T17:06:01;15.00;;;4.10;;
58518;SDS011;44310;48.106;12.008;2023-02-15T17:08:33;14.07;;;4.13;;
58518;SDS011;44310;48.106;12.008;2023-02-15T17:11:14;16.63;;;4.55;;
58518;SDS011;44310;48.106;12.008;2023-02-15T17:14:09;15.20;;;4.37;;
58518;SDS011;44310;48.106;12.008;2023-02-15T17:16:33;14.77;;;4.05;;
58518;SDS011;44310;48.106;12.008;2023-02-15T17:19:02;10.40;;;3.40;;
58518;SDS011;44310;48.106;12.008;2023-02-15T17:21:40;13.70;;;3.78;;
58518;SDS011;44310;48.106;12.008;2023-02-15T17:24:16;8.55;;;3.10;;
58518;SDS011;44310;48.106;12.008;2023-02-15T17:26:51;12.45;;;3.50;;
58518;SDS011;44310;48.106;12.008;2023-02-15T17:29:29;10.02;;;3.00;;
58518;SDS011;44310;48.106;12.008;2023-02-15T17:32:09;6.50;;;2.58;;
58518;SDS011;44310;48.106;12.008;2023-02-15T17:34:44;9.07;;;2.80;;